sensor_id;sensor_type;location;lat;lon;timestamp;temperature;humidity
16863;DHT22;52193;48.216;-1.698;2023-04-01T00:02:26;14.60;99.90
16863;DHT22;52193;48.216;-1.698;2023-04-01T00:04:53;14.60;99.90
16863;DHT22;52193;48.216;-1.698;2023-04-01T00:07:20;14.60;99.90
16863;DHT22;52193;48.216;-1.698;2023-04-01T00:09:48;14.50;99.90
16863;DHT22;52193;48.216;-1.698;2023-04-01T00:12:15;14.50;99.90
16863;DHT22;52193;48.216;-1.698;2023-04-01T00:14:43;14.50;99.90
16863;DHT22;52193;48.216;-1.698;2023-04-01T00:17:10;14.50;99.90
16863;DHT22;52193;48.216;-1.698;2023-04-01T00:19:37;14.50;99.90
16863;DHT22;52193;48.216;-1.698;2023-04-01T00:22:04;14.60;99.90
16863;DHT22;52193;48.216;-1.698;2023-04-01T00:24:31;14.60;99.90
16863;DHT22;52193;48.216;-1.698;2023-04-01T00:26:58;14.50;99.90
16863;DHT22;52193;48.216;-1.698;2023-04-01T00:29:25;14.50;99.90
16863;DHT22;52193;48.216;-1.698;2023-04-01T00:31:56;14.50;99.90
16863;DHT22;52193;48.216;-1.698;2023-04-01T00:34:23;14.50;99.90
16863;DHT22;52193;48.216;-1.698;2023-04-01T00:36:51;14.50;99.90
16863;DHT22;52193;48.216;-1.698;2023-04-01T00:39:19;14.40;99.90
16863;DHT22;52193;48.216;-1.698;2023-04-01T00:41:47;14.40;99.90
16863;DHT22;52193;48.216;-1.698;2023-04-01T00:44:19;14.30;99.90
16863;DHT22;52193;48.216;-1.698;2023-04-01T00:46:46;14.30;99.90
16863;DHT22;52193;48.216;-1.698;2023-04-01T00:49:17;14.30;99.90
16863;DHT22;52193;48.216;-1.698;2023-04-01T00:51:46;14.20;99.90
16863;DHT22;52193;48.216;-1.698;2023-04-01T00:54:16;14.20;99.90
16863;DHT22;52193;48.216;-1.698;2023-04-01T00:56:46;14.20;99.90
16863;DHT22;52193;48.216;-1.698;2023-04-01T00:59:19;14.10;99.90
16863;DHT22;52193;48.216;-1.698;2023-04-01T01:01:47;14.20;99.90
16863;DHT22;52193;48.216;-1.698;2023-04-01T01:04:27;14.10;99.90
16863;DHT22;52193;48.216;-1.698;2023-04-01T01:07:02;14.10;99.90
16863;DHT22;52193;48.216;-1.698;2023-04-01T01:09:41;14.10;99.90
16863;DHT22;52193;48.216;-1.698;2023-04-01T01:12:13;14.10;99.90
16863;DHT22;52193;48.216;-1.698;2023-04-01T01:14:53;14.00;99.90
16863;DHT22;52193;48.216;-1.698;2023-04-01T01:17:29;14.00;99.90
16863;DHT22;52193;48.216;-1.698;2023-04-01T01:23:42;14.00;99.90
16863;DHT22;52193;48.216;-1.698;2023-04-01T01:26:34;14.00;99.90
16863;DHT22;52193;48.216;-1.698;2023-04-01T01:29:15;14.00;99.90
16863;DHT22;52193;48.216;-1.698;2023-04-01T01:31:49;14.00;99.90
16863;DHT22;52193;48.216;-1.698;2023-04-01T01:34:20;14.00;99.90
16863;DHT22;52193;48.216;-1.698;2023-04-01T01:36:56;14.10;99.90
16863;DHT22;52193;48.216;-1.698;2023-04-01T01:39:27;14.10;99.90
16863;DHT22;52193;48.216;-1.698;2023-04-01T01:41:58;14.20;99.90
16863;DHT22;52193;48.216;-1.698;2023-04-01T01:44:28;14.20;99.90
16863;DHT22;52193;48.216;-1.698;2023-04-01T01:46:57;14.10;99.90
16863;DHT22;52193;48.216;-1.698;2023-04-01T01:49:24;14.00;99.90
16863;DHT22;52193;48.216;-1.698;2023-04-01T01:51:53;14.00;99.90
16863;DHT22;52193;48.216;-1.698;2023-04-01T01:54:20;14.10;99.90
16863;DHT22;52193;48.216;-1.698;2023-04-01T01:56:49;14.20;99.90
16863;DHT22;52193;48.216;-1.698;2023-04-01T01:59:20;14.10;99.90
16863;DHT22;52193;48.216;-1.698;2023-04-01T02:01:51;14.10;99.90
16863;DHT22;52193;48.216;-1.698;2023-04-01T02:04:19;14.20;99.90
16863;DHT22;52193;48.216;-1.698;2023-04-01T02:06:50;14.20;99.90
16863;DHT22;52193;48.216;-1.698;2023-04-01T02:09:20;14.20;99.90
16863;DHT22;52193;48.216;-1.698;2023-04-01T02:11:49;14.20;99.90
16863;DHT22;52193;48.216;-1.698;2023-04-01T02:14:18;14.10;99.90
16863;DHT22;52193;48.216;-1.698;2023-04-01T02:16:50;14.20;99.90
16863;DHT22;52193;48.216;-1.698;2023-04-01T02:19:18;14.20;99.90
16863;DHT22;52193;48.216;-1.698;2023-04-01T02:21:50;14.20;99.90
16863;DHT22;52193;48.216;-1.698;2023-04-01T02:24:18;14.30;99.90
16863;DHT22;52193;48.216;-1.698;2023-04-01T02:26:50;14.20;99.90
16863;DHT22;52193;48.216;-1.698;2023-04-01T02:29:20;14.30;99.90
16863;DHT22;52193;48.216;-1.698;2023-04-01T02:31:49;14.30;99.90
16863;DHT22;52193;48.216;-1.698;2023-04-01T02:34:16;14.30;99.90
16863;DHT22;52193;48.216;-1.698;2023-04-01T02:36:44;14.30;99.90
16863;DHT22;52193;48.216;-1.698;2023-04-01T02:39:11;14.30;99.90
16863;DHT22;52193;48.216;-1.698;2023-04-01T02:41:41;14.30;99.90
16863;DHT22;52193;48.216;-1.698;2023-04-01T02:44:10;14.20;99.90
16863;DHT22;52193;48.216;-1.698;2023-04-01T02:46:38;14.30;99.90
16863;DHT22;52193;48.216;-1.698;2023-04-01T02:49:05;14.30;99.90
16863;DHT22;52193;48.216;-1.698;2023-04-01T02:51:33;14.40;99.90
16863;DHT22;52193;48.216;-1.698;2023-04-01T02:54:00;14.40;99.90
16863;DHT22;52193;48.216;-1.698;2023-04-01T02:56:27;14.40;99.90
16863;DHT22;52193;48.216;-1.698;2023-04-01T02:58:54;14.40;99.90
16863;DHT22;52193;48.216;-1.698;2023-04-01T03:01:23;14.50;99.90
16863;DHT22;52193;48.216;-1.698;2023-04-01T03:03:50;14.40;99.90
16863;DHT22;52193;48.216;-1.698;2023-04-01T03:06:17;14.40;99.90
16863;DHT22;52193;48.216;-1.698;2023-04-01T03:08:44;14.50;99.90
16863;DHT22;52193;48.216;-1.698;2023-04-01T03:11:12;14.40;99.90
16863;DHT22;52193;48.216;-1.698;2023-04-01T03:13:39;14.40;99.90
16863;DHT22;52193;48.216;-1.698;2023-04-01T03:16:06;14.40;99.90
16863;DHT22;52193;48.216;-1.698;2023-04-01T03:18:35;14.40;99.90
16863;DHT22;52193;48.216;-1.698;2023-04-01T03:21:16;14.40;99.90
16863;DHT22;52193;48.216;-1.698;2023-04-01T03:23:43;14.50;99.90
16863;DHT22;52193;48.216;-1.698;2023-04-01T03:26:10;14.40;99.90
16863;DHT22;52193;48.216;-1.698;2023-04-01T03:28:37;14.40;99.90
16863;DHT22;52193;48.216;-1.698;2023-04-01T03:31:04;14.30;99.90
16863;DHT22;52193;48.216;-1.698;2023-04-01T03:33:32;14.20;99.90
16863;DHT22;52193;48.216;-1.698;2023-04-01T03:36:00;14.20;99.90
16863;DHT22;52193;48.216;-1.698;2023-04-01T03:38:28;14.30;99.90
16863;DHT22;52193;48.216;-1.698;2023-04-01T03:40:55;14.20;99.90
16863;DHT22;52193;48.216;-1.698;2023-04-01T03:43:22;14.20;99.90
16863;DHT22;52193;48.216;-1.698;2023-04-01T03:45:50;14.20;99.90
16863;DHT22;52193;48.216;-1.698;2023-04-01T03:48:18;14.20;99.90
16863;DHT22;52193;48.216;-1.698;2023-04-01T03:50:45;14.10;99.90
16863;DHT22;52193;48.216;-1.698;2023-04-01T03:53:13;14.00;99.90
16863;DHT22;52193;48.216;-1.698;2023-04-01T03:55:40;14.00;99.90
16863;DHT22;52193;48.216;-1.698;2023-04-01T03:58:08;14.10;99.90
16863;DHT22;52193;48.216;-1.698;2023-04-01T04:00:35;14.00;99.90
16863;DHT22;52193;48.216;-1.698;2023-04-01T04:03:02;14.10;99.90
16863;DHT22;52193;48.216;-1.698;2023-04-01T04:05:29;14.10;99.90
16863;DHT22;52193;48.216;-1.698;2023-04-01T04:07:56;14.10;99.90
16863;DHT22;52193;48.216;-1.698;2023-04-01T04:10:24;14.00;99.90
16863;DHT22;52193;48.216;-1.698;2023-04-01T04:12:52;13.90;99.90
16863;DHT22;52193;48.216;-1.698;2023-04-01T04:15:19;14.00;99.90
16863;DHT22;52193;48.216;-1.698;2023-04-01T04:17:46;14.00;99.90
16863;DHT22;52193;48.216;-1.698;2023-04-01T04:20:14;14.00;99.90
16863;DHT22;52193;48.216;-1.698;2023-04-01T04:22:41;14.10;99.90
16863;DHT22;52193;48.216;-1.698;2023-04-01T04:25:08;14.10;99.90
16863;DHT22;52193;48.216;-1.698;2023-04-01T04:27:36;14.00;99.90
16863;DHT22;52193;48.216;-1.698;2023-04-01T04:30:05;14.10;99.90
16863;DHT22;52193;48.216;-1.698;2023-04-01T04:32:32;14.00;99.90
16863;DHT22;52193;48.216;-1.698;2023-04-01T04:34:59;13.90;99.90
16863;DHT22;52193;48.216;-1.698;2023-04-01T04:37:26;14.00;99.90
16863;DHT22;52193;48.216;-1.698;2023-04-01T04:39:53;14.00;99.90
16863;DHT22;52193;48.216;-1.698;2023-04-01T04:42:20;14.10;99.90
16863;DHT22;52193;48.216;-1.698;2023-04-01T04:44:48;14.10;99.90
16863;DHT22;52193;48.216;-1.698;2023-04-01T04:47:15;14.10;99.90
16863;DHT22;52193;48.216;-1.698;2023-04-01T04:49:42;14.00;99.90
16863;DHT22;52193;48.216;-1.698;2023-04-01T04:52:09;13.90;99.90
16863;DHT22;52193;48.216;-1.698;2023-04-01T04:54:36;13.90;99.90
16863;DHT22;52193;48.216;-1.698;2023-04-01T04:57:03;13.90;99.90
16863;DHT22;52193;48.216;-1.698;2023-04-01T04:59:30;13.90;99.90
16863;DHT22;52193;48.216;-1.698;2023-04-01T05:01:59;13.90;99.90
16863;DHT22;52193;48.216;-1.698;2023-04-01T05:04:25;13.90;99.90
16863;DHT22;52193;48.216;-1.698;2023-04-01T05:06:52;13.80;99.90
16863;DHT22;52193;48.216;-1.698;2023-04-01T05:09:19;13.80;99.90
16863;DHT22;52193;48.216;-1.698;2023-04-01T05:11:46;13.80;99.90
16863;DHT22;52193;48.216;-1.698;2023-04-01T05:14:14;13.80;99.90
16863;DHT22;52193;48.216;-1.698;2023-04-01T05:16:41;13.90;99.90
16863;DHT22;52193;48.216;-1.698;2023-04-01T05:19:09;13.80;99.90
16863;DHT22;52193;48.216;-1.698;2023-04-01T05:21:36;13.80;99.90
16863;DHT22;52193;48.216;-1.698;2023-04-01T05:24:06;13.80;99.90
16863;DHT22;52193;48.216;-1.698;2023-04-01T05:26:33;13.80;99.90
16863;DHT22;52193;48.216;-1.698;2023-04-01T05:29:00;13.70;99.90
16863;DHT22;52193;48.216;-1.698;2023-04-01T05:31:27;13.80;99.90
16863;DHT22;52193;48.216;-1.698;2023-04-01T05:33:54;13.80;99.90
16863;DHT22;52193;48.216;-1.698;2023-04-01T05:36:23;13.70;99.90
16863;DHT22;52193;48.216;-1.698;2023-04-01T05:38:50;13.70;99.90
16863;DHT22;52193;48.216;-1.698;2023-04-01T05:41:17;13.70;99.90
16863;DHT22;52193;48.216;-1.698;2023-04-01T05:43:43;13.70;99.90
16863;DHT22;52193;48.216;-1.698;2023-04-01T05:46:10;13.70;99.90
16863;DHT22;52193;48.216;-1.698;2023-04-01T05:48:37;13.60;99.90
16863;DHT22;52193;48.216;-1.698;2023-04-01T05:51:04;13.60;99.90
16863;DHT22;52193;48.216;-1.698;2023-04-01T05:53:33;13.70;99.90
16863;DHT22;52193;48.216;-1.698;2023-04-01T05:56:02;13.70;99.90
16863;DHT22;52193;48.216;-1.698;2023-04-01T05:58:30;13.60;99.90
16863;DHT22;52193;48.216;-1.698;2023-04-01T06:01:01;13.70;99.90
16863;DHT22;52193;48.216;-1.698;2023-04-01T06:03:28;13.70;99.90
16863;DHT22;52193;48.216;-1.698;2023-04-01T06:05:55;13.70;99.90
16863;DHT22;52193;48.216;-1.698;2023-04-01T06:08:23;13.70;99.90
16863;DHT22;52193;48.216;-1.698;2023-04-01T06:11:01;13.70;99.90
16863;DHT22;52193;48.216;-1.698;2023-04-01T06:13:41;13.70;99.90
16863;DHT22;52193;48.216;-1.698;2023-04-01T06:16:22;13.70;99.90
16863;DHT22;52193;48.216;-1.698;2023-04-01T06:19:05;13.70;99.90
16863;DHT22;52193;48.216;-1.698;2023-04-01T06:30:49;13.80;99.90
16863;DHT22;52193;48.216;-1.698;2023-04-01T06:33:30;13.90;99.90
16863;DHT22;52193;48.216;-1.698;2023-04-01T06:36:26;13.80;99.90
16863;DHT22;52193;48.216;-1.698;2023-04-01T06:39:26;13.80;99.90
16863;DHT22;52193;48.216;-1.698;2023-04-01T06:42:22;13.90;99.90
16863;DHT22;52193;48.216;-1.698;2023-04-01T06:45:07;13.90;99.90
16863;DHT22;52193;48.216;-1.698;2023-04-01T06:47:52;13.90;99.90
16863;DHT22;52193;48.216;-1.698;2023-04-01T06:50:26;13.90;99.90
16863;DHT22;52193;48.216;-1.698;2023-04-01T06:52:58;14.00;99.90
16863;DHT22;52193;48.216;-1.698;2023-04-01T06:55:29;14.00;99.90
16863;DHT22;52193;48.216;-1.698;2023-04-01T06:58:03;14.00;99.90
16863;DHT22;52193;48.216;-1.698;2023-04-01T07:00:35;14.00;99.90
16863;DHT22;52193;48.216;-1.698;2023-04-01T07:03:10;14.00;99.90
16863;DHT22;52193;48.216;-1.698;2023-04-01T07:05:42;14.00;99.90
16863;DHT22;52193;48.216;-1.698;2023-04-01T07:08:12;13.90;99.90
16863;DHT22;52193;48.216;-1.698;2023-04-01T07:10:45;13.90;99.90
16863;DHT22;52193;48.216;-1.698;2023-04-01T07:13:17;13.90;99.90
16863;DHT22;52193;48.216;-1.698;2023-04-01T07:15:54;14.00;99.90
16863;DHT22;52193;48.216;-1.698;2023-04-01T07:18:28;14.00;99.90
16863;DHT22;52193;48.216;-1.698;2023-04-01T07:20:57;14.00;99.90
16863;DHT22;52193;48.216;-1.698;2023-04-01T07:23:27;14.00;99.90
16863;DHT22;52193;48.216;-1.698;2023-04-01T07:25:58;14.10;99.90
16863;DHT22;52193;48.216;-1.698;2023-04-01T07:28:30;14.10;99.90
16863;DHT22;52193;48.216;-1.698;2023-04-01T07:31:10;14.10;99.90
16863;DHT22;52193;48.216;-1.698;2023-04-01T07:33:44;14.10;99.90
16863;DHT22;52193;48.216;-1.698;2023-04-01T07:36:16;14.10;99.90
16863;DHT22;52193;48.216;-1.698;2023-04-01T07:38:54;14.20;99.90
16863;DHT22;52193;48.216;-1.698;2023-04-01T07:41:29;14.30;99.90
16863;DHT22;52193;48.216;-1.698;2023-04-01T07:44:08;14.40;99.90
16863;DHT22;52193;48.216;-1.698;2023-04-01T07:46:56;14.40;99.90
16863;DHT22;52193;48.216;-1.698;2023-04-01T07:49:30;14.20;99.90
16863;DHT22;52193;48.216;-1.698;2023-04-01T07:52:06;14.30;99.90
16863;DHT22;52193;48.216;-1.698;2023-04-01T07:54:42;14.20;99.90
16863;DHT22;52193;48.216;-1.698;2023-04-01T07:57:18;14.20;99.90
16863;DHT22;52193;48.216;-1.698;2023-04-01T07:59:54;14.30;99.90
16863;DHT22;52193;48.216;-1.698;2023-04-01T08:02:33;14.40;99.90
16863;DHT22;52193;48.216;-1.698;2023-04-01T08:05:11;14.50;99.90
16863;DHT22;52193;48.216;-1.698;2023-04-01T08:07:45;14.60;99.90
16863;DHT22;52193;48.216;-1.698;2023-04-01T08:10:18;14.70;99.90
16863;DHT22;52193;48.216;-1.698;2023-04-01T08:12:54;14.90;99.90
16863;DHT22;52193;48.216;-1.698;2023-04-01T08:15:28;15.00;99.90
16863;DHT22;52193;48.216;-1.698;2023-04-01T08:18:09;15.10;99.90
16863;DHT22;52193;48.216;-1.698;2023-04-01T08:20:41;15.20;99.90
16863;DHT22;52193;48.216;-1.698;2023-04-01T08:23:14;15.30;99.90
16863;DHT22;52193;48.216;-1.698;2023-04-01T08:25:49;15.30;99.90
16863;DHT22;52193;48.216;-1.698;2023-04-01T08:28:22;15.30;99.90
16863;DHT22;52193;48.216;-1.698;2023-04-01T08:30:53;15.40;99.90
16863;DHT22;52193;48.216;-1.698;2023-04-01T08:33:25;15.40;99.90
16863;DHT22;52193;48.216;-1.698;2023-04-01T08:35:56;15.40;99.90
16863;DHT22;52193;48.216;-1.698;2023-04-01T08:38:28;15.40;99.90
16863;DHT22;52193;48.216;-1.698;2023-04-01T08:40:59;15.30;99.90
16863;DHT22;52193;48.216;-1.698;2023-04-01T08:43:51;15.50;99.90
16863;DHT22;52193;48.216;-1.698;2023-04-01T08:46:34;15.50;99.90
16863;DHT22;52193;48.216;-1.698;2023-04-01T08:49:12;15.50;99.90
16863;DHT22;52193;48.216;-1.698;2023-04-01T08:52:00;15.60;99.90
16863;DHT22;52193;48.216;-1.698;2023-04-01T08:54:46;15.60;99.90
16863;DHT22;52193;48.216;-1.698;2023-04-01T08:57:24;15.70;99.90
16863;DHT22;52193;48.216;-1.698;2023-04-01T09:00:08;15.70;99.90
16863;DHT22;52193;48.216;-1.698;2023-04-01T09:03:19;15.70;99.90
16863;DHT22;52193;48.216;-1.698;2023-04-01T09:08:59;15.70;99.90
16863;DHT22;52193;48.216;-1.698;2023-04-01T09:11:42;15.70;99.90
16863;DHT22;52193;48.216;-1.698;2023-04-01T09:14:37;15.80;99.90
16863;DHT22;52193;48.216;-1.698;2023-04-01T09:17:36;15.70;99.90
16863;DHT22;52193;48.216;-1.698;2023-04-01T09:20:24;15.80;99.90
16863;DHT22;52193;48.216;-1.698;2023-04-01T09:23:10;16.00;99.90
16863;DHT22;52193;48.216;-1.698;2023-04-01T09:25:53;15.90;99.90
16863;DHT22;52193;48.216;-1.698;2023-04-01T09:28:28;16.00;99.90
16863;DHT22;52193;48.216;-1.698;2023-04-01T09:31:23;16.10;99.90
16863;DHT22;52193;48.216;-1.698;2023-04-01T09:34:25;16.10;99.90
16863;DHT22;52193;48.216;-1.698;2023-04-01T09:37:03;16.30;99.90
16863;DHT22;52193;48.216;-1.698;2023-04-01T09:39:37;16.20;99.90
16863;DHT22;52193;48.216;-1.698;2023-04-01T09:42:26;16.30;99.90
16863;DHT22;52193;48.216;-1.698;2023-04-01T09:44:58;16.40;99.90
16863;DHT22;52193;48.216;-1.698;2023-04-01T09:47:42;16.40;99.90
16863;DHT22;52193;48.216;-1.698;2023-04-01T09:50:36;16.30;99.90
16863;DHT22;52193;48.216;-1.698;2023-04-01T09:53:25;16.20;99.90
16863;DHT22;52193;48.216;-1.698;2023-04-01T09:56:19;16.30;99.90
16863;DHT22;52193;48.216;-1.698;2023-04-01T10:11:56;16.20;99.90
16863;DHT22;52193;48.216;-1.698;2023-04-01T10:14:58;16.30;99.90
16863;DHT22;52193;48.216;-1.698;2023-04-01T10:21:04;16.50;99.90
16863;DHT22;52193;48.216;-1.698;2023-04-01T10:23:57;16.60;99.90
16863;DHT22;52193;48.216;-1.698;2023-04-01T10:26:42;16.60;99.90
16863;DHT22;52193;48.216;-1.698;2023-04-01T10:29:36;16.70;99.90
16863;DHT22;52193;48.216;-1.698;2023-04-01T10:35:45;16.70;99.90
16863;DHT22;52193;48.216;-1.698;2023-04-01T10:38:55;16.60;99.90
16863;DHT22;52193;48.216;-1.698;2023-04-01T10:42:00;16.50;99.90
16863;DHT22;52193;48.216;-1.698;2023-04-01T10:54:18;16.70;99.90
16863;DHT22;52193;48.216;-1.698;2023-04-01T10:56:54;16.90;99.90
16863;DHT22;52193;48.216;-1.698;2023-04-01T11:05:58;17.00;99.90
16863;DHT22;52193;48.216;-1.698;2023-04-01T11:11:55;16.30;99.90
16863;DHT22;52193;48.216;-1.698;2023-04-01T11:21:16;16.30;99.90
16863;DHT22;52193;48.216;-1.698;2023-04-01T11:24:04;16.40;99.90
16863;DHT22;52193;48.216;-1.698;2023-04-01T11:26:48;16.60;99.90
16863;DHT22;52193;48.216;-1.698;2023-04-01T11:29:37;16.70;99.90
16863;DHT22;52193;48.216;-1.698;2023-04-01T11:32:23;16.70;99.90
16863;DHT22;52193;48.216;-1.698;2023-04-01T11:35:01;16.60;99.90
16863;DHT22;52193;48.216;-1.698;2023-04-01T11:37:38;16.40;99.90
16863;DHT22;52193;48.216;-1.698;2023-04-01T11:40:16;16.40;99.90
16863;DHT22;52193;48.216;-1.698;2023-04-01T11:42:53;16.50;99.90
16863;DHT22;52193;48.216;-1.698;2023-04-01T11:45:32;16.60;99.90
16863;DHT22;52193;48.216;-1.698;2023-04-01T11:48:20;16.70;99.90
16863;DHT22;52193;48.216;-1.698;2023-04-01T11:51:06;16.90;99.90
16863;DHT22;52193;48.216;-1.698;2023-04-01T11:53:44;17.20;99.90
16863;DHT22;52193;48.216;-1.698;2023-04-01T11:56:21;17.60;99.90
16863;DHT22;52193;48.216;-1.698;2023-04-01T12:02:10;18.20;99.90
16863;DHT22;52193;48.216;-1.698;2023-04-01T12:04:55;18.60;99.90
16863;DHT22;52193;48.216;-1.698;2023-04-01T12:07:45;18.80;99.90
16863;DHT22;52193;48.216;-1.698;2023-04-01T12:10:20;19.00;99.90
16863;DHT22;52193;48.216;-1.698;2023-04-01T12:12:54;19.10;99.90
16863;DHT22;52193;48.216;-1.698;2023-04-01T12:15:31;19.40;99.90
16863;DHT22;52193;48.216;-1.698;2023-04-01T12:18:04;19.70;99.90
16863;DHT22;52193;48.216;-1.698;2023-04-01T12:20:47;20.00;99.90
16863;DHT22;52193;48.216;-1.698;2023-04-01T12:26:23;20.70;99.90
16863;DHT22;52193;48.216;-1.698;2023-04-01T12:31:56;20.70;99.90
16863;DHT22;52193;48.216;-1.698;2023-04-01T12:34:39;20.60;99.90
16863;DHT22;52193;48.216;-1.698;2023-04-01T12:37:13;20.90;99.90
16863;DHT22;52193;48.216;-1.698;2023-04-01T12:39:54;20.80;99.90
16863;DHT22;52193;48.216;-1.698;2023-04-01T12:42:39;20.40;99.80
16863;DHT22;52193;48.216;-1.698;2023-04-01T12:45:27;20.40;98.70
16863;DHT22;52193;48.216;-1.698;2023-04-01T12:48:22;20.70;98.60
16863;DHT22;52193;48.216;-1.698;2023-04-01T12:51:16;21.40;98.30
16863;DHT22;52193;48.216;-1.698;2023-04-01T12:54:16;21.60;97.40
16863;DHT22;52193;48.216;-1.698;2023-04-01T12:56:52;20.70;99.90
16863;DHT22;52193;48.216;-1.698;2023-04-01T12:59:41;20.00;99.90
16863;DHT22;52193;48.216;-1.698;2023-04-01T13:02:15;19.20;99.90
16863;DHT22;52193;48.216;-1.698;2023-04-01T13:04:56;18.80;99.90
16863;DHT22;52193;48.216;-1.698;2023-04-01T13:07:53;18.40;99.90
16863;DHT22;52193;48.216;-1.698;2023-04-01T13:10:31;18.30;99.90
16863;DHT22;52193;48.216;-1.698;2023-04-01T13:13:28;18.20;99.90
16863;DHT22;52193;48.216;-1.698;2023-04-01T13:16:06;18.50;99.90
16863;DHT22;52193;48.216;-1.698;2023-04-01T13:18:39;18.90;99.90
16863;DHT22;52193;48.216;-1.698;2023-04-01T13:21:14;19.30;99.90
16863;DHT22;52193;48.216;-1.698;2023-04-01T13:23:53;19.70;99.90
16863;DHT22;52193;48.216;-1.698;2023-04-01T13:26:27;20.40;99.90
16863;DHT22;52193;48.216;-1.698;2023-04-01T13:29:00;21.20;99.90
16863;DHT22;52193;48.216;-1.698;2023-04-01T13:31:54;21.50;99.90
16863;DHT22;52193;48.216;-1.698;2023-04-01T13:34:39;21.90;99.90
16863;DHT22;52193;48.216;-1.698;2023-04-01T13:37:19;22.20;99.90
16863;DHT22;52193;48.216;-1.698;2023-04-01T13:40:01;22.40;99.90
16863;DHT22;52193;48.216;-1.698;2023-04-01T13:42:33;22.60;99.90
16863;DHT22;52193;48.216;-1.698;2023-04-01T13:45:12;22.20;99.90
16863;DHT22;52193;48.216;-1.698;2023-04-01T13:48:00;21.80;99.90
16863;DHT22;52193;48.216;-1.698;2023-04-01T13:50:42;21.40;99.90
16863;DHT22;52193;48.216;-1.698;2023-04-01T13:53:43;20.50;99.90
16863;DHT22;52193;48.216;-1.698;2023-04-01T13:56:23;20.10;99.90
16863;DHT22;52193;48.216;-1.698;2023-04-01T13:59:31;19.80;99.90
16863;DHT22;52193;48.216;-1.698;2023-04-01T14:02:14;19.60;99.90
16863;DHT22;52193;48.216;-1.698;2023-04-01T14:04:53;19.90;99.90
16863;DHT22;52193;48.216;-1.698;2023-04-01T14:07:46;20.40;99.90
16863;DHT22;52193;48.216;-1.698;2023-04-01T14:10:23;21.40;99.90
16863;DHT22;52193;48.216;-1.698;2023-04-01T14:12:59;22.30;99.90
16863;DHT22;52193;48.216;-1.698;2023-04-01T14:15:36;23.30;99.80
16863;DHT22;52193;48.216;-1.698;2023-04-01T14:18:21;24.30;97.70
16863;DHT22;52193;48.216;-1.698;2023-04-01T14:20:58;25.20;96.90
16863;DHT22;52193;48.216;-1.698;2023-04-01T14:23:47;26.10;96.50
16863;DHT22;52193;48.216;-1.698;2023-04-01T14:26:35;25.80;95.30
16863;DHT22;52193;48.216;-1.698;2023-04-01T14:29:14;25.30;93.50
16863;DHT22;52193;48.216;-1.698;2023-04-01T14:31:57;24.80;92.50
16863;DHT22;52193;48.216;-1.698;2023-04-01T14:34:51;24.00;92.30
16863;DHT22;52193;48.216;-1.698;2023-04-01T14:40:58;25.10;92.00
16863;DHT22;52193;48.216;-1.698;2023-04-01T14:43:49;25.80;91.80
16863;DHT22;52193;48.216;-1.698;2023-04-01T14:46:42;27.00;91.50
16863;DHT22;52193;48.216;-1.698;2023-04-01T14:49:17;27.90;90.10
16863;DHT22;52193;48.216;-1.698;2023-04-01T14:51:46;28.60;89.60
16863;DHT22;52193;48.216;-1.698;2023-04-01T14:54:17;28.80;87.10
16863;DHT22;52193;48.216;-1.698;2023-04-01T14:56:49;28.50;83.40
16863;DHT22;52193;48.216;-1.698;2023-04-01T14:59:26;28.70;83.50
16863;DHT22;52193;48.216;-1.698;2023-04-01T15:02:01;28.20;84.00
16863;DHT22;52193;48.216;-1.698;2023-04-01T15:04:49;28.00;83.70
16863;DHT22;52193;48.216;-1.698;2023-04-01T15:07:43;27.80;82.70
16863;DHT22;52193;48.216;-1.698;2023-04-01T15:10:31;26.90;82.60
16863;DHT22;52193;48.216;-1.698;2023-04-01T15:13:10;26.60;84.00
16863;DHT22;52193;48.216;-1.698;2023-04-01T15:15:51;26.50;84.70
16863;DHT22;52193;48.216;-1.698;2023-04-01T15:18:33;26.20;84.80
16863;DHT22;52193;48.216;-1.698;2023-04-01T15:21:25;25.50;84.30
16863;DHT22;52193;48.216;-1.698;2023-04-01T15:24:03;25.30;85.20
16863;DHT22;52193;48.216;-1.698;2023-04-01T15:27:01;25.30;85.40
16863;DHT22;52193;48.216;-1.698;2023-04-01T15:29:43;26.00;85.70
16863;DHT22;52193;48.216;-1.698;2023-04-01T15:32:17;26.60;84.30
16863;DHT22;52193;48.216;-1.698;2023-04-01T15:34:50;27.50;84.50
16863;DHT22;52193;48.216;-1.698;2023-04-01T15:37:30;27.90;83.10
16863;DHT22;52193;48.216;-1.698;2023-04-01T15:40:04;27.70;82.60
16863;DHT22;52193;48.216;-1.698;2023-04-01T15:42:48;27.30;82.80
16863;DHT22;52193;48.216;-1.698;2023-04-01T15:45:41;26.90;82.70
16863;DHT22;52193;48.216;-1.698;2023-04-01T15:48:39;26.60;83.00
16863;DHT22;52193;48.216;-1.698;2023-04-01T15:51:37;26.10;82.80
16863;DHT22;52193;48.216;-1.698;2023-04-01T15:54:19;25.30;81.50
16863;DHT22;52193;48.216;-1.698;2023-04-01T15:57:00;24.80;83.10
16863;DHT22;52193;48.216;-1.698;2023-04-01T15:59:44;24.40;83.20
16863;DHT22;52193;48.216;-1.698;2023-04-01T16:02:20;24.00;85.00
16863;DHT22;52193;48.216;-1.698;2023-04-01T16:04:54;23.70;85.20
16863;DHT22;52193;48.216;-1.698;2023-04-01T16:07:30;23.40;86.40
16863;DHT22;52193;48.216;-1.698;2023-04-01T16:10:23;23.00;85.60
16863;DHT22;52193;48.216;-1.698;2023-04-01T16:13:00;23.20;86.10
16863;DHT22;52193;48.216;-1.698;2023-04-01T16:15:39;23.30;86.30
16863;DHT22;52193;48.216;-1.698;2023-04-01T16:18:23;23.00;85.50
16863;DHT22;52193;48.216;-1.698;2023-04-01T16:20:56;22.80;85.80
16863;DHT22;52193;48.216;-1.698;2023-04-01T16:23:29;22.50;85.70
16863;DHT22;52193;48.216;-1.698;2023-04-01T16:26:06;22.20;86.30
16863;DHT22;52193;48.216;-1.698;2023-04-01T16:28:38;22.00;86.90
16863;DHT22;52193;48.216;-1.698;2023-04-01T16:31:12;21.80;87.30
16863;DHT22;52193;48.216;-1.698;2023-04-01T16:33:46;21.50;86.90
16863;DHT22;52193;48.216;-1.698;2023-04-01T16:36:24;21.20;87.40
16863;DHT22;52193;48.216;-1.698;2023-04-01T16:39:12;20.90;87.50
16863;DHT22;52193;48.216;-1.698;2023-04-01T16:41:48;20.70;88.10
16863;DHT22;52193;48.216;-1.698;2023-04-01T16:44:19;20.40;88.40
16863;DHT22;52193;48.216;-1.698;2023-04-01T16:46:51;20.30;90.00
16863;DHT22;52193;48.216;-1.698;2023-04-01T16:49:33;20.20;89.90
16863;DHT22;52193;48.216;-1.698;2023-04-01T16:52:14;20.20;90.30
16863;DHT22;52193;48.216;-1.698;2023-04-01T16:54:45;20.10;90.40
16863;DHT22;52193;48.216;-1.698;2023-04-01T16:57:20;20.10;90.70
16863;DHT22;52193;48.216;-1.698;2023-04-01T16:59:54;20.10;90.80
16863;DHT22;52193;48.216;-1.698;2023-04-01T17:02:28;19.90;90.90
16863;DHT22;52193;48.216;-1.698;2023-04-01T17:05:00;19.90;91.00
16863;DHT22;52193;48.216;-1.698;2023-04-01T17:07:38;19.80;90.90
16863;DHT22;52193;48.216;-1.698;2023-04-01T17:10:40;19.70;90.90
16863;DHT22;52193;48.216;-1.698;2023-04-01T17:13:34;19.70;91.10
16863;DHT22;52193;48.216;-1.698;2023-04-01T17:16:14;19.60;91.30
16863;DHT22;52193;48.216;-1.698;2023-04-01T17:18:58;19.40;91.30
16863;DHT22;52193;48.216;-1.698;2023-04-01T17:21:34;19.30;91.40
16863;DHT22;52193;48.216;-1.698;2023-04-01T17:24:09;19.30;91.60
16863;DHT22;52193;48.216;-1.698;2023-04-01T17:26:44;19.30;92.10